createdAt,value
2018-08-19T00:00:59.280Z,1018.40
2018-08-19T00:02:04.824Z,1018.39
2018-08-19T00:03:10.373Z,1018.40
2018-08-19T00:04:15.946Z,1018.40
2018-08-19T00:05:21.443Z,1018.39
2018-08-19T00:06:26.990Z,1018.39
2018-08-19T00:07:32.527Z,1018.41
2018-08-19T00:08:38.071Z,1018.41
2018-08-19T00:09:43.610Z,1018.44
2018-08-19T00:10:49.148Z,1018.47
2018-08-19T00:11:54.689Z,1018.44
2018-08-19T00:13:00.230Z,1018.43
2018-08-19T00:14:05.777Z,1018.43
2018-08-19T00:15:11.313Z,1018.42
2018-08-19T00:16:16.851Z,1018.43
2018-08-19T00:17:22.389Z,1018.44
2018-08-19T00:18:27.931Z,1018.43
2018-08-19T00:19:33.477Z,1018.45
2018-08-19T00:20:39.020Z,1018.45
2018-08-19T00:21:44.559Z,1018.45
2018-08-19T00:22:50.096Z,1018.45
2018-08-19T00:23:55.634Z,1018.44
2018-08-19T00:25:01.174Z,1018.45
2018-08-19T00:26:06.717Z,1018.42
2018-08-19T00:27:12.259Z,1018.45
2018-08-19T00:28:17.803Z,1018.43
2018-08-19T00:29:23.338Z,1018.45
2018-08-19T00:30:28.881Z,1018.53
2018-08-19T00:31:34.419Z,1018.54
2018-08-19T00:32:39.964Z,1018.53
2018-08-19T00:33:45.498Z,1018.54
2018-08-19T00:34:51.054Z,1018.55
2018-08-19T00:35:56.576Z,1018.53
2018-08-19T00:37:02.123Z,1018.55
2018-08-19T00:38:07.667Z,1018.59
2018-08-19T00:39:13.208Z,1018.55
2018-08-19T00:40:18.743Z,1018.53
2018-08-19T00:41:24.282Z,1018.55
2018-08-19T00:42:29.823Z,1018.56
2018-08-19T00:43:35.366Z,1018.52
2018-08-19T00:44:40.911Z,1018.52
2018-08-19T00:45:46.447Z,1018.51
2018-08-19T00:46:51.994Z,1018.50
2018-08-19T00:47:57.531Z,1018.52
2018-08-19T00:49:03.070Z,1018.49
2018-08-19T00:50:08.608Z,1018.51
2018-08-19T00:51:14.152Z,1018.46
2018-08-19T00:52:19.690Z,1018.47
2018-08-19T00:53:25.234Z,1018.49
2018-08-19T00:54:30.770Z,1018.46
2018-08-19T00:55:36.315Z,1018.46
2018-08-19T00:56:41.851Z,1018.51
2018-08-19T00:57:47.391Z,1018.52
2018-08-19T00:58:52.938Z,1018.52
2018-08-19T00:59:58.475Z,1018.53
2018-08-19T01:01:04.014Z,1018.54
2018-08-19T01:02:09.559Z,1018.51
2018-08-19T01:03:15.093Z,1018.53
2018-08-19T01:04:20.641Z,1018.53
2018-08-19T01:05:26.175Z,1018.53
2018-08-19T01:06:31.716Z,1018.55
2018-08-19T01:07:37.258Z,1018.53
2018-08-19T01:08:42.800Z,1018.53
2018-08-19T01:09:48.337Z,1018.51
2018-08-19T01:10:53.883Z,1018.55
2018-08-19T01:11:59.425Z,1018.54
2018-08-19T01:13:04.965Z,1018.50
2018-08-19T01:14:10.528Z,1018.53
2018-08-19T01:15:16.043Z,1018.51
2018-08-19T01:16:21.582Z,1018.50
2018-08-19T01:17:27.124Z,1018.50
2018-08-19T01:18:32.687Z,1018.52
2018-08-19T01:19:38.208Z,1018.47
2018-08-19T01:20:43.742Z,1018.50
2018-08-19T01:21:49.285Z,1018.49
2018-08-19T01:22:54.826Z,1018.48
2018-08-19T01:24:00.369Z,1018.50
2018-08-19T01:25:05.904Z,1018.50
2018-08-19T01:26:11.442Z,1018.52
2018-08-19T01:27:16.985Z,1018.46
2018-08-19T01:28:22.532Z,1018.48
2018-08-19T01:29:28.066Z,1018.48
2018-08-19T01:30:33.627Z,1018.51
2018-08-19T01:31:39.151Z,1018.49
2018-08-19T01:32:44.687Z,1018.48
2018-08-19T01:33:50.227Z,1018.53
2018-08-19T01:34:55.820Z,1018.54
2018-08-19T01:36:01.315Z,1018.56
2018-08-19T01:37:06.850Z,1018.53
2018-08-19T01:38:12.388Z,1018.52
2018-08-19T01:39:17.935Z,1018.53
2018-08-19T01:40:23.476Z,1018.52
2018-08-19T01:41:29.011Z,1018.53
2018-08-19T01:42:34.565Z,1018.58
2018-08-19T01:43:40.100Z,1018.55
2018-08-19T01:44:45.636Z,1018.53
2018-08-19T01:45:51.171Z,1018.52
2018-08-19T01:46:56.712Z,1018.55
2018-08-19T01:48:02.253Z,1018.54
2018-08-19T01:49:07.793Z,1018.52
2018-08-19T01:50:13.334Z,1018.51
2018-08-19T01:51:18.880Z,1018.48
2018-08-19T01:52:24.418Z,1018.46
2018-08-19T01:53:29.955Z,1018.48
2018-08-19T01:54:35.495Z,1018.50
2018-08-19T01:55:41.035Z,1018.50
2018-08-19T01:56:46.576Z,1018.50
2018-08-19T01:57:52.117Z,1018.51
2018-08-19T01:58:57.658Z,1018.50
2018-08-19T02:00:03.195Z,1018.52
2018-08-19T02:01:08.739Z,1018.48
2018-08-19T02:02:14.280Z,1018.49
2018-08-19T02:03:19.820Z,1018.49
2018-08-19T02:04:25.356Z,1018.54
2018-08-19T02:05:30.902Z,1018.52
2018-08-19T02:06:36.445Z,1018.53
2018-08-19T02:07:41.981Z,1018.52
2018-08-19T02:08:47.524Z,1018.53
2018-08-19T02:09:53.063Z,1018.47
2018-08-19T02:10:58.603Z,1018.50
2018-08-19T02:12:04.140Z,1018.49
2018-08-19T02:13:09.683Z,1018.47
2018-08-19T02:14:15.232Z,1018.48
2018-08-19T02:15:20.761Z,1018.49
2018-08-19T02:16:26.307Z,1018.42
2018-08-19T02:17:31.843Z,1018.50
2018-08-19T02:18:37.380Z,1018.51
2018-08-19T02:19:42.928Z,1018.51
2018-08-19T02:20:48.543Z,1018.51
2018-08-19T02:21:54.005Z,1018.50
2018-08-19T02:22:59.545Z,1018.50
2018-08-19T02:24:05.083Z,1018.51
2018-08-19T02:25:10.622Z,1018.51
2018-08-19T02:26:16.162Z,1018.50
2018-08-19T02:27:21.704Z,1018.49
2018-08-19T02:28:27.252Z,1018.49
2018-08-19T02:29:32.787Z,1018.44
2018-08-19T02:30:38.329Z,1018.48
2018-08-19T02:31:43.861Z,1018.45
2018-08-19T02:32:49.401Z,1018.48
2018-08-19T02:33:54.942Z,1018.48
2018-08-19T02:35:00.491Z,1018.46
2018-08-19T02:36:06.037Z,1018.47
2018-08-19T02:37:11.570Z,1018.50
2018-08-19T02:38:17.123Z,1018.48
2018-08-19T02:39:22.644Z,1018.45
2018-08-19T02:40:28.180Z,1018.37
2018-08-19T02:41:33.729Z,1018.36
2018-08-19T02:42:39.265Z,1018.40
2018-08-19T02:43:44.804Z,1018.34
2018-08-19T02:44:50.350Z,1018.34
2018-08-19T02:45:55.892Z,1018.32
2018-08-19T02:47:01.426Z,1018.30
2018-08-19T02:48:06.964Z,1018.32
2018-08-19T02:49:12.517Z,1018.33
2018-08-19T02:50:18.043Z,1018.30
2018-08-19T02:51:23.588Z,1018.30
2018-08-19T02:52:29.132Z,1018.30
2018-08-19T02:53:34.665Z,1018.27
2018-08-19T02:54:40.203Z,1018.28
2018-08-19T02:55:45.747Z,1018.29
2018-08-19T02:56:51.289Z,1018.27
2018-08-19T02:57:56.828Z,1018.31
2018-08-19T02:59:02.374Z,1018.26
2018-08-19T03:00:07.905Z,1018.30
2018-08-19T03:01:13.445Z,1018.25
2018-08-19T03:02:18.986Z,1018.19
2018-08-19T03:03:24.524Z,1018.21
2018-08-19T03:04:30.073Z,1018.21
2018-08-19T03:05:35.610Z,1018.22
2018-08-19T03:06:41.149Z,1018.22
2018-08-19T03:07:46.693Z,1018.20
2018-08-19T03:08:52.226Z,1018.18
2018-08-19T03:09:57.770Z,1018.18
2018-08-19T03:11:03.304Z,1018.21
2018-08-19T03:12:08.850Z,1018.24
2018-08-19T03:13:14.385Z,1018.24
2018-08-19T03:14:19.931Z,1018.24
2018-08-19T03:15:25.465Z,1018.27
2018-08-19T03:16:31.010Z,1018.23
2018-08-19T03:17:36.549Z,1018.22
2018-08-19T03:18:42.085Z,1018.17
2018-08-19T03:19:47.629Z,1018.20
2018-08-19T03:20:53.167Z,1018.18
2018-08-19T03:21:58.705Z,1018.20
2018-08-19T03:23:04.252Z,1018.16
2018-08-19T03:24:09.789Z,1018.17
2018-08-19T03:25:15.328Z,1018.16
2018-08-19T03:26:20.872Z,1018.19
2018-08-19T03:27:26.413Z,1018.16
2018-08-19T03:28:31.943Z,1018.18
2018-08-19T03:29:37.491Z,1018.19
2018-08-19T03:30:43.028Z,1018.17
2018-08-19T03:31:48.569Z,1018.20
2018-08-19T03:32:54.115Z,1018.21
2018-08-19T03:33:59.651Z,1018.16
2018-08-19T03:35:05.186Z,1018.16
2018-08-19T03:36:10.727Z,1018.16
2018-08-19T03:37:16.263Z,1018.17
2018-08-19T03:38:21.805Z,1018.18
2018-08-19T03:39:27.349Z,1018.15
2018-08-19T03:40:32.886Z,1018.13
2018-08-19T03:41:38.428Z,1018.15
2018-08-19T03:42:43.968Z,1018.10
2018-08-19T03:43:49.509Z,1018.13
2018-08-19T03:44:55.044Z,1018.12
2018-08-19T03:46:00.590Z,1018.11
2018-08-19T03:47:06.126Z,1018.11
2018-08-19T03:48:11.668Z,1018.08
2018-08-19T03:49:17.202Z,1018.06
2018-08-19T03:50:22.749Z,1018.05
2018-08-19T03:51:28.288Z,1018.05
2018-08-19T03:52:33.830Z,1018.05
2018-08-19T03:53:39.372Z,1018.04
2018-08-19T03:54:44.907Z,1018.06
2018-08-19T03:55:50.447Z,1018.05
2018-08-19T03:56:55.982Z,1018.10
2018-08-19T03:58:01.525Z,1018.12
2018-08-19T03:59:07.063Z,1018.12
2018-08-19T04:00:12.609Z,1018.10
2018-08-19T04:01:18.145Z,1018.08
2018-08-19T04:02:23.695Z,1018.10
2018-08-19T04:03:29.220Z,1018.10
2018-08-19T04:04:34.762Z,1018.08
2018-08-19T04:05:40.301Z,1018.09
2018-08-19T04:06:45.845Z,1018.06
2018-08-19T04:07:51.380Z,1018.07
2018-08-19T04:08:56.922Z,1018.04
2018-08-19T04:10:02.465Z,1018.10
2018-08-19T04:11:08.005Z,1018.08
2018-08-19T04:12:13.538Z,1018.09
2018-08-19T04:13:19.079Z,1018.03
2018-08-19T04:14:24.622Z,1018.06
2018-08-19T04:15:30.163Z,1018.07
2018-08-19T04:16:35.702Z,1018.08
2018-08-19T04:17:41.243Z,1018.08
2018-08-19T04:18:46.779Z,1018.08
2018-08-19T04:19:52.318Z,1018.11
2018-08-19T04:20:57.859Z,1018.13
2018-08-19T04:22:03.396Z,1018.09
2018-08-19T04:23:08.936Z,1018.09
2018-08-19T04:24:14.483Z,1018.09
2018-08-19T04:25:20.017Z,1018.10
2018-08-19T04:26:25.560Z,1018.10
2018-08-19T04:27:31.096Z,1018.12
2018-08-19T04:28:36.641Z,1018.16
2018-08-19T04:29:42.186Z,1018.14
2018-08-19T04:30:47.713Z,1018.14
2018-08-19T04:31:53.254Z,1018.13
2018-08-19T04:32:58.795Z,1018.11
2018-08-19T04:34:04.340Z,1018.13
2018-08-19T04:35:09.873Z,1018.14
2018-08-19T04:36:15.416Z,1018.13
2018-08-19T04:37:20.957Z,1018.13
2018-08-19T04:38:26.490Z,1018.15
2018-08-19T04:39:32.038Z,1018.15
2018-08-19T04:40:37.577Z,1018.10
2018-08-19T04:41:43.111Z,1018.13
2018-08-19T04:42:48.658Z,1018.10
2018-08-19T04:43:54.193Z,1018.15
2018-08-19T04:44:59.731Z,1018.15
2018-08-19T04:46:05.270Z,1018.15
2018-08-19T04:47:10.815Z,1018.18
2018-08-19T04:48:16.348Z,1018.19
2018-08-19T04:49:21.890Z,1018.17
2018-08-19T04:50:27.429Z,1018.17
2018-08-19T04:51:32.972Z,1018.20
2018-08-19T04:52:38.508Z,1018.20
2018-08-19T04:53:44.049Z,1018.16
2018-08-19T04:54:49.593Z,1018.17
2018-08-19T04:55:55.127Z,1018.16
2018-08-19T04:57:00.668Z,1018.15
2018-08-19T04:58:06.213Z,1018.12
2018-08-19T04:59:11.750Z,1018.12
2018-08-19T05:00:17.285Z,1018.13
2018-08-19T05:01:22.829Z,1018.12
2018-08-19T05:02:28.391Z,1018.15
2018-08-19T05:03:33.905Z,1018.16
2018-08-19T05:04:39.449Z,1018.17
2018-08-19T05:05:44.990Z,1018.18
2018-08-19T05:06:50.524Z,1018.21
2018-08-19T05:07:56.119Z,1018.22
2018-08-19T05:09:01.603Z,1018.20
2018-08-19T05:10:07.147Z,1018.24
2018-08-19T05:11:12.691Z,1018.26
2018-08-19T05:12:18.224Z,1018.26
2018-08-19T05:13:23.766Z,1018.28
2018-08-19T05:14:29.310Z,1018.31
2018-08-19T05:15:34.939Z,1018.31
2018-08-19T05:16:40.394Z,1018.30
2018-08-19T05:17:45.928Z,1018.29
2018-08-19T05:18:51.475Z,1018.35
2018-08-19T05:19:57.004Z,1018.35
2018-08-19T05:21:02.548Z,1018.36
2018-08-19T05:22:08.086Z,1018.36
2018-08-19T05:23:13.628Z,1018.36
2018-08-19T05:24:19.174Z,1018.37
2018-08-19T05:25:24.707Z,1018.39
2018-08-19T05:26:30.252Z,1018.39
2018-08-19T05:27:35.792Z,1018.42
2018-08-19T05:28:41.328Z,1018.46
2018-08-19T05:29:46.869Z,1018.41
2018-08-19T05:30:52.412Z,1018.31
2018-08-19T05:31:57.952Z,1018.38
2018-08-19T05:33:03.492Z,1018.36
2018-08-19T05:34:09.035Z,1018.32
2018-08-19T05:35:14.569Z,1018.33
2018-08-19T05:36:20.114Z,1018.36
2018-08-19T05:37:25.648Z,1018.34
2018-08-19T05:38:31.188Z,1018.34
2018-08-19T05:39:36.732Z,1018.33
2018-08-19T05:40:42.274Z,1018.34
2018-08-19T05:41:47.811Z,1018.36
2018-08-19T05:42:53.352Z,1018.38
2018-08-19T05:43:58.889Z,1018.37
2018-08-19T05:45:04.435Z,1018.37
2018-08-19T05:46:09.977Z,1018.36
2018-08-19T05:47:15.613Z,1018.40
2018-08-19T05:48:21.054Z,1018.39
2018-08-19T05:49:26.599Z,1018.39
2018-08-19T05:50:32.132Z,1018.41
2018-08-19T05:51:37.680Z,1018.43
2018-08-19T05:52:43.218Z,1018.47
2018-08-19T05:53:48.760Z,1018.46
2018-08-19T05:54:54.302Z,1018.42
2018-08-19T05:55:59.843Z,1018.44
2018-08-19T05:57:05.385Z,1018.43
2018-08-19T05:58:10.922Z,1018.41
2018-08-19T05:59:16.462Z,1018.39
2018-08-19T06:00:22.002Z,1018.43
2018-08-19T06:01:27.545Z,1018.39
2018-08-19T06:02:33.090Z,1018.44
2018-08-19T06:03:38.622Z,1018.43
2018-08-19T06:04:44.169Z,1018.41
2018-08-19T06:05:49.710Z,1018.40
2018-08-19T06:06:55.251Z,1018.42
2018-08-19T06:08:00.792Z,1018.41
2018-08-19T06:09:06.332Z,1018.41
2018-08-19T06:10:11.870Z,1018.43
2018-08-19T06:11:17.409Z,1018.42
2018-08-19T06:12:22.955Z,1018.43
2018-08-19T06:13:28.498Z,1018.46
2018-08-19T06:14:34.039Z,1018.41
2018-08-19T06:15:39.580Z,1018.45
2018-08-19T06:16:45.115Z,1018.43
2018-08-19T06:17:50.657Z,1018.47
2018-08-19T06:18:56.200Z,1018.39
2018-08-19T06:20:01.740Z,1018.42
2018-08-19T06:21:07.287Z,1018.41
2018-08-19T06:22:12.828Z,1018.38
2018-08-19T06:23:18.369Z,1018.47
2018-08-19T06:24:23.916Z,1018.44
2018-08-19T06:25:29.449Z,1018.46
2018-08-19T06:26:34.988Z,1018.47
2018-08-19T06:27:40.537Z,1018.48
2018-08-19T06:28:46.078Z,1018.47
2018-08-19T06:29:51.615Z,1018.45
2018-08-19T06:30:57.208Z,1018.45
2018-08-19T06:32:02.701Z,1018.41
2018-08-19T06:33:08.262Z,1018.44
2018-08-19T06:34:13.784Z,1018.45
2018-08-19T06:35:19.326Z,1018.43
2018-08-19T06:36:24.928Z,1018.44
2018-08-19T06:37:30.403Z,1018.46
2018-08-19T06:38:35.953Z,1018.42
2018-08-19T06:39:41.491Z,1018.41
2018-08-19T06:40:47.032Z,1018.39
2018-08-19T06:41:52.570Z,1018.40
2018-08-19T06:42:58.120Z,1018.38
2018-08-19T06:44:03.708Z,1018.39
2018-08-19T06:45:09.201Z,1018.35
2018-08-19T06:46:14.742Z,1018.36
2018-08-19T06:47:20.287Z,1018.36
2018-08-19T06:48:25.821Z,1018.33
2018-08-19T06:49:31.358Z,1018.32
2018-08-19T06:50:36.954Z,1018.36
2018-08-19T06:51:42.444Z,1018.38
2018-08-19T06:52:47.988Z,1018.39
2018-08-19T06:53:53.526Z,1018.40
2018-08-19T06:54:59.068Z,1018.37
2018-08-19T06:56:04.614Z,1018.34
2018-08-19T06:57:10.158Z,1018.32
2018-08-19T06:58:15.699Z,1018.32
2018-08-19T06:59:21.236Z,1018.29
2018-08-19T07:00:26.786Z,1018.30
2018-08-19T07:01:32.323Z,1018.29
2018-08-19T07:02:38.000Z,1018.25
2018-08-19T07:03:44.046Z,1018.21
2018-08-19T07:04:49.011Z,1018.27
2018-08-19T07:05:54.487Z,1018.29
2018-08-19T07:07:00.031Z,1018.28
2018-08-19T07:08:05.575Z,1018.27
2018-08-19T07:09:11.189Z,1018.24
2018-08-19T07:10:16.729Z,1018.21
2018-08-19T07:11:22.201Z,1018.26
2018-08-19T07:12:27.742Z,1018.27
2018-08-19T07:13:33.276Z,1018.25
2018-08-19T07:14:38.824Z,1018.26
2018-08-19T07:15:44.380Z,1018.26
2018-08-19T07:16:49.904Z,1018.25
2018-08-19T07:17:55.441Z,1018.27
2018-08-19T07:19:00.985Z,1018.28
2018-08-19T07:20:06.537Z,1018.28
2018-08-19T07:21:12.074Z,1018.31
2018-08-19T07:22:17.611Z,1018.27
2018-08-19T07:23:23.155Z,1018.30
2018-08-19T07:24:28.739Z,1018.28
2018-08-19T07:25:34.244Z,1018.29
2018-08-19T07:26:39.809Z,1018.28
2018-08-19T07:27:45.324Z,1018.33
2018-08-19T07:28:50.869Z,1018.32
2018-08-19T07:29:56.415Z,1018.33
2018-08-19T07:31:01.949Z,1018.34
2018-08-19T07:32:07.497Z,1018.28
2018-08-19T07:33:13.032Z,1018.28
2018-08-19T07:34:18.579Z,1018.29
2018-08-19T07:35:24.120Z,1018.29
2018-08-19T07:36:29.664Z,1018.28
2018-08-19T07:37:35.200Z,1018.22
2018-08-19T07:38:40.743Z,1018.22
2018-08-19T07:39:46.292Z,1018.25
2018-08-19T07:40:51.851Z,1018.27
2018-08-19T07:41:57.393Z,1018.19
2018-08-19T07:43:02.914Z,1018.18
2018-08-19T07:44:08.453Z,1018.21
2018-08-19T07:45:13.999Z,1018.20
2018-08-19T07:46:19.543Z,1018.20
2018-08-19T07:48:57.532Z,1018.19
2018-08-19T07:50:03.059Z,1018.19
2018-08-19T07:53:33.116Z,1018.20
2018-08-19T07:54:38.641Z,1018.20
2018-08-19T07:56:37.066Z,1018.21
2018-08-19T07:59:14.197Z,1018.20
2018-08-19T08:00:19.728Z,1018.25
2018-08-19T08:02:18.153Z,1018.20
2018-08-19T08:03:23.683Z,1018.17
2018-08-19T08:05:22.133Z,1018.17
2018-08-19T08:06:27.647Z,1018.23
2018-08-19T08:08:26.360Z,1018.23
2018-08-19T08:09:31.613Z,1018.22
2018-08-19T08:10:37.150Z,1018.19
2018-08-19T08:11:42.694Z,1018.18
2018-08-19T08:12:48.480Z,1018.22
2018-08-19T08:13:53.811Z,1018.25
2018-08-19T08:14:59.315Z,1018.27
2018-08-19T08:16:04.864Z,1018.26
2018-08-19T08:17:10.786Z,1018.27
2018-08-19T08:18:17.049Z,1018.28
2018-08-19T08:19:21.601Z,1018.27
2018-08-19T08:20:27.275Z,1018.26
2018-08-19T08:21:33.052Z,1018.28
2018-08-19T08:22:38.483Z,1018.23
2018-08-19T08:23:43.667Z,1018.23
2018-08-19T08:24:49.203Z,1018.26
2018-08-19T08:25:54.750Z,1018.26
2018-08-19T08:27:00.293Z,1018.24
2018-08-19T08:29:37.432Z,1018.20
2018-08-19T08:30:42.971Z,1018.22
2018-08-19T08:32:41.386Z,1018.22
2018-08-19T08:33:46.929Z,1018.28
2018-08-19T08:34:52.487Z,1018.24
2018-08-19T08:35:58.008Z,1018.33
2018-08-19T08:37:03.561Z,1018.24
2018-08-19T08:38:09.098Z,1018.28
2018-08-19T08:39:14.641Z,1018.26
2018-08-19T08:40:20.185Z,1018.26
2018-08-19T08:41:25.843Z,1018.23
2018-08-19T08:42:31.262Z,1018.27
2018-08-19T08:43:36.812Z,1018.26
2018-08-19T08:44:42.405Z,1018.25
2018-08-19T08:45:47.897Z,1018.26
2018-08-19T08:46:53.448Z,1018.25
2018-08-19T08:47:59.068Z,1018.25
2018-08-19T08:49:04.531Z,1018.23
2018-08-19T08:50:10.066Z,1018.24
2018-08-19T08:51:15.624Z,1018.24
2018-08-19T08:52:21.159Z,1018.23
2018-08-19T08:53:26.729Z,1018.26
2018-08-19T08:54:32.246Z,1018.23
2018-08-19T08:55:37.803Z,1018.28
2018-08-19T08:56:43.328Z,1018.26
2018-08-19T08:57:48.872Z,1018.24
2018-08-19T09:00:26.077Z,1018.26
2018-08-19T09:01:31.570Z,1018.27
2018-08-19T09:02:37.110Z,1018.24
2018-08-19T09:03:42.649Z,1018.24
2018-08-19T09:04:48.188Z,1018.24
2018-08-19T09:05:53.733Z,1018.25
2018-08-19T09:06:59.290Z,1018.24
2018-08-19T09:08:04.827Z,1018.31
2018-08-19T09:09:10.369Z,1018.28
2018-08-19T09:10:15.909Z,1018.24
2018-08-19T09:11:21.449Z,1018.26
2018-08-19T09:12:26.990Z,1018.24
2018-08-19T09:13:32.531Z,1018.23
2018-08-19T09:14:38.079Z,1018.21
2018-08-19T09:15:43.613Z,1018.24
2018-08-19T09:16:49.159Z,1018.23
2018-08-19T09:17:54.777Z,1018.25
2018-08-19T09:19:00.247Z,1018.24
2018-08-19T09:20:05.782Z,1018.24
2018-08-19T09:21:11.330Z,1018.25
2018-08-19T09:22:16.869Z,1018.21
2018-08-19T09:23:22.559Z,1018.19
2018-08-19T09:24:27.955Z,1018.16
2018-08-19T09:25:33.503Z,1018.16
2018-08-19T09:26:39.042Z,1018.19
2018-08-19T09:27:44.591Z,1018.14
2018-08-19T09:28:50.136Z,1018.13
2018-08-19T09:29:55.678Z,1018.10
2018-08-19T09:31:01.214Z,1018.08
2018-08-19T09:32:06.763Z,1018.05
2018-08-19T09:33:12.305Z,1018.02
2018-08-19T09:34:17.850Z,1018.00
2018-08-19T09:35:23.414Z,1017.95
2018-08-19T09:36:28.931Z,1017.98
2018-08-19T09:37:34.477Z,1017.94
2018-08-19T09:38:40.021Z,1017.95
2018-08-19T09:39:45.564Z,1017.96
2018-08-19T09:40:51.179Z,1017.94
2018-08-19T09:41:56.650Z,1017.95
2018-08-19T09:43:02.204Z,1017.91
2018-08-19T09:44:07.749Z,1017.97
2018-08-19T09:45:13.293Z,1017.87
2018-08-19T09:46:18.841Z,1017.89
2018-08-19T09:47:24.382Z,1017.86
2018-08-19T09:48:29.912Z,1017.83
2018-08-19T09:49:35.460Z,1017.82
2018-08-19T09:50:41.008Z,1017.81
2018-08-19T09:51:46.559Z,1017.82
2018-08-19T09:52:52.090Z,1017.83
2018-08-19T09:53:57.634Z,1017.84
2018-08-19T09:55:03.181Z,1017.74
2018-08-19T09:56:08.719Z,1017.72
2018-08-19T09:57:14.268Z,1017.74
2018-08-19T09:58:19.814Z,1017.75
2018-08-19T09:59:25.353Z,1017.76
2018-08-19T10:00:30.901Z,1017.77
2018-08-19T10:01:36.481Z,1017.71
2018-08-19T10:02:41.987Z,1017.72
2018-08-19T10:03:47.531Z,1017.70
2018-08-19T10:04:53.075Z,1017.68
2018-08-19T10:05:58.638Z,1017.71
2018-08-19T10:10:07.870Z,1017.67
2018-08-19T10:11:13.387Z,1017.66
2018-08-19T10:13:11.815Z,1017.61
2018-08-19T10:14:17.354Z,1017.62
2018-08-19T10:15:22.898Z,1017.62
2018-08-19T10:16:28.442Z,1017.61
2018-08-19T10:17:34.024Z,1017.60
2018-08-19T10:18:39.540Z,1017.58
2018-08-19T10:19:45.074Z,1017.55
2018-08-19T10:20:50.618Z,1017.61
2018-08-19T10:21:56.161Z,1017.60
2018-08-19T10:23:01.712Z,1017.62
2018-08-19T10:24:07.245Z,1017.57
2018-08-19T10:25:12.790Z,1017.62
2018-08-19T10:26:18.339Z,1017.57
2018-08-19T10:27:23.878Z,1017.62
2018-08-19T10:28:29.424Z,1017.62
2018-08-19T10:29:34.973Z,1017.58
2018-08-19T10:30:40.521Z,1017.60
2018-08-19T10:31:46.060Z,1017.58
2018-08-19T10:32:51.643Z,1017.52
2018-08-19T10:33:57.157Z,1017.56
2018-08-19T10:35:02.702Z,1017.49
2018-08-19T10:36:08.240Z,1017.51
2018-08-19T10:37:13.784Z,1017.45
2018-08-19T10:38:19.330Z,1017.43
2018-08-19T10:39:24.903Z,1017.41
2018-08-19T10:40:30.417Z,1017.48
2018-08-19T10:41:35.953Z,1017.41
2018-08-19T10:42:41.507Z,1017.40
2018-08-19T10:43:47.048Z,1017.44
2018-08-19T10:44:52.602Z,1017.45
2018-08-19T10:45:58.141Z,1017.42
2018-08-19T10:47:03.682Z,1017.45
2018-08-19T10:48:09.250Z,1017.43
2018-08-19T10:49:14.774Z,1017.39
2018-08-19T10:50:20.311Z,1017.38
2018-08-19T10:51:25.859Z,1017.37
2018-08-19T10:52:31.427Z,1017.35
2018-08-19T10:53:36.999Z,1017.32
2018-08-19T10:54:42.495Z,1017.30
2018-08-19T10:55:48.209Z,1017.23
2018-08-19T10:56:53.604Z,1017.21
2018-08-19T10:57:59.142Z,1017.20
2018-08-19T10:59:05.256Z,1017.18
2018-08-19T11:00:10.239Z,1017.21
2018-08-19T11:01:15.772Z,1017.20
2018-08-19T11:02:21.309Z,1017.16
2018-08-19T11:03:26.914Z,1017.13
2018-08-19T11:04:32.401Z,1017.13
2018-08-19T11:05:37.957Z,1017.11
2018-08-19T11:06:43.609Z,1017.08
2018-08-19T11:07:50.099Z,1017.04
2018-08-19T11:08:54.574Z,1017.08
2018-08-19T11:10:00.119Z,1017.05
2018-08-19T11:11:05.657Z,1017.01
2018-08-19T11:12:11.207Z,1016.97
2018-08-19T11:13:16.959Z,1016.96
2018-08-19T11:14:22.294Z,1016.98
2018-08-19T11:15:35.015Z,1016.91
2018-08-19T11:17:26.292Z,1016.87
2018-08-19T11:18:39.080Z,1016.84
2018-08-19T11:20:30.250Z,1016.87
2018-08-19T11:21:35.789Z,1016.87
2018-08-19T11:23:34.229Z,1016.87
2018-08-19T11:24:39.760Z,1016.86
2018-08-19T11:26:38.205Z,1016.82
2018-08-19T11:27:43.729Z,1016.85
2018-08-19T11:28:49.447Z,1016.86
2018-08-19T11:29:54.817Z,1016.78
2018-08-19T11:31:00.364Z,1016.74
2018-08-19T11:32:05.905Z,1016.78
2018-08-19T11:33:11.448Z,1016.76
2018-08-19T11:34:16.998Z,1016.70
2018-08-19T11:35:22.541Z,1016.70
2018-08-19T11:36:28.088Z,1016.70
2018-08-19T11:37:33.635Z,1016.71
2018-08-19T11:38:39.177Z,1016.74
2018-08-19T11:39:44.720Z,1016.67
2018-08-19T11:40:50.268Z,1016.63
2018-08-19T11:41:55.811Z,1016.65
2018-08-19T11:43:01.353Z,1016.65
2018-08-19T11:44:06.902Z,1016.62
2018-08-19T11:45:12.450Z,1016.57
2018-08-19T11:46:18.017Z,1016.59
2018-08-19T11:47:23.542Z,1016.61
2018-08-19T11:48:29.084Z,1016.62
2018-08-19T11:49:34.629Z,1016.60
2018-08-19T11:50:40.171Z,1016.61
2018-08-19T11:51:45.722Z,1016.54
2018-08-19T11:52:51.258Z,1016.58
2018-08-19T11:53:56.813Z,1016.52
2018-08-19T11:55:02.351Z,1016.47
2018-08-19T11:56:07.903Z,1016.48
2018-08-19T11:57:13.450Z,1016.47
2018-08-19T11:58:18.992Z,1016.47
2018-08-19T11:59:24.537Z,1016.49
2018-08-19T12:00:30.097Z,1016.39
2018-08-19T12:01:35.621Z,1016.41
2018-08-19T12:02:41.171Z,1016.47
2018-08-19T12:03:46.715Z,1016.45
2018-08-19T12:04:52.265Z,1016.44
2018-08-19T12:05:57.816Z,1016.45
2018-08-19T12:07:03.412Z,1016.41
2018-08-19T12:08:08.922Z,1016.37
2018-08-19T12:09:14.440Z,1016.31
2018-08-19T12:10:19.999Z,1016.36
2018-08-19T12:11:25.544Z,1016.35
2018-08-19T12:12:31.091Z,1016.34
2018-08-19T12:13:36.629Z,1016.28
2018-08-19T12:14:42.171Z,1016.32
2018-08-19T12:15:47.728Z,1016.33
2018-08-19T12:16:53.324Z,1016.32
2018-08-19T12:17:58.814Z,1016.30
2018-08-19T12:19:04.358Z,1016.28
2018-08-19T12:20:09.898Z,1016.21
2018-08-19T12:21:15.447Z,1016.18
2018-08-19T12:22:21.021Z,1016.21
2018-08-19T12:23:26.534Z,1016.24
2018-08-19T12:24:32.082Z,1016.20
2018-08-19T12:25:37.636Z,1016.25
2018-08-19T12:26:43.179Z,1016.16
2018-08-19T12:27:48.820Z,1016.19
2018-08-19T12:28:54.271Z,1016.19
2018-08-19T12:29:59.820Z,1016.17
2018-08-19T12:31:05.363Z,1016.22
2018-08-19T12:32:10.909Z,1016.20
2018-08-19T12:33:16.453Z,1016.13
2018-08-19T12:34:22.045Z,1016.18
2018-08-19T12:35:27.546Z,1016.13
2018-08-19T12:36:33.095Z,1016.05
2018-08-19T12:37:38.808Z,1016.01
2018-08-19T12:38:44.186Z,1016.00
2018-08-19T12:39:49.733Z,1015.99
2018-08-19T12:40:55.273Z,1015.92
2018-08-19T12:42:00.820Z,1015.97
2018-08-19T12:43:06.364Z,1015.97
2018-08-19T12:44:11.920Z,1015.92
2018-08-19T12:45:17.471Z,1015.90
2018-08-19T12:46:23.009Z,1015.84
2018-08-19T12:47:28.554Z,1015.81
2018-08-19T12:48:34.101Z,1015.87
2018-08-19T12:49:39.639Z,1015.86
2018-08-19T12:50:45.186Z,1015.79
2018-08-19T12:51:50.736Z,1015.74
2018-08-19T12:52:56.284Z,1015.74
2018-08-19T12:54:01.879Z,1015.70
2018-08-19T12:55:07.377Z,1015.71
2018-08-19T12:56:12.925Z,1015.69
2018-08-19T12:57:18.474Z,1015.69
2018-08-19T12:58:24.015Z,1015.65
2018-08-19T12:59:29.562Z,1015.64
2018-08-19T13:00:35.106Z,1015.63
2018-08-19T13:01:40.653Z,1015.64
2018-08-19T13:02:46.199Z,1015.62
2018-08-19T13:03:51.752Z,1015.56
2018-08-19T13:04:57.293Z,1015.55
2018-08-19T13:06:02.866Z,1015.56
2018-08-19T13:07:08.386Z,1015.51
2018-08-19T13:08:13.930Z,1015.47
2018-08-19T13:09:19.471Z,1015.45
2018-08-19T13:10:25.026Z,1015.48
2018-08-19T13:11:30.573Z,1015.46
2018-08-19T13:12:36.116Z,1015.48
2018-08-19T13:13:41.678Z,1015.47
2018-08-19T13:14:47.207Z,1015.51
2018-08-19T13:15:52.753Z,1015.42
2018-08-19T13:16:58.294Z,1015.46
2018-08-19T13:18:03.859Z,1015.48
2018-08-19T13:19:09.390Z,1015.44
2018-08-19T13:20:14.947Z,1015.37
2018-08-19T13:21:22.417Z,1015.37
2018-08-19T13:22:26.028Z,1015.32
2018-08-19T13:23:31.581Z,1015.31
2018-08-19T13:24:37.124Z,1015.26
2018-08-19T13:25:42.672Z,1015.25
2018-08-19T13:26:48.221Z,1015.21
2018-08-19T13:27:53.764Z,1015.18
2018-08-19T13:28:59.309Z,1015.12
2018-08-19T13:30:04.850Z,1015.10
2018-08-19T13:31:10.418Z,1015.09
2018-08-19T13:32:15.942Z,1015.12
2018-08-19T13:33:22.297Z,1015.07